Time;durP1;ratioP1;P1;durP2;ratioP2;P2;SDS_P1;SDS_P2;PMS_P1;PMS_P2;Temp;Humidity;BMP_temperature;BMP_pressure;BME280_temperature;BME280_humidity;BME280_pressure;Samples;Min_cycle;Max_cycle;Signal;HPM_P1;HPM_P2
2023/07/08 00:00:11;;;;;;;;;;;;;;;28.60;45.02;100744.58;102856;1290;61164;-81
2023/07/08 00:02:36;;;;;;;;;;;;;;;28.61;45.01;100743.29;103095;1284;61296;-81
2023/07/08 00:05:02;;;;;;;;;;;;;;;28.60;45.02;100736.25;102957;1284;60052;-81
2023/07/08 00:07:27;;;;;;;;;;;;;;;28.60;45.02;100732.32;103175;1284;61423;-81
2023/07/08 00:09:53;;;;;;;;;;;;;;;28.60;44.97;100729.27;102980;1284;61380;-81
2023/07/08 00:12:19;;;;;;;;;;;;;;;28.60;44.99;100730.35;103037;1284;61263;-81
2023/07/08 00:14:45;;;;;;;;;;;;;;;28.59;45.03;100727.66;103131;1284;61405;-81
2023/07/08 00:17:11;;;;;;;;;;;;;;;28.59;45.00;100729.10;102982;1284;62150;-81
2023/07/08 00:19:37;;;;;;;;;;;;;;;28.59;45.12;100733.81;103357;1284;61406;-81
2023/07/08 00:22:07;;;;;;;;;;;;;;;28.59;45.12;100738.73;102992;1284;60105;-81
2023/07/08 00:24:33;;;;;;;;;;;;;;;28.59;45.07;100741.58;103061;1284;64895;-81
2023/07/08 00:26:58;;;;;;;;;;;;;;;28.59;44.96;100749.21;103058;1284;62266;-81
2023/07/08 00:29:24;;;;;;;;;;;;;;;28.59;45.16;100753.03;103070;1285;62391;-81
2023/07/08 00:31:49;;;;;;;;;;;;;;;28.59;44.99;100754.69;102984;1284;61417;-81
2023/07/08 00:34:15;;;;;;;;;;;;;;;28.59;45.30;100756.48;103164;1284;62190;-81
2023/07/08 00:36:41;;;;;;;;;;;;;;;28.59;45.19;100751.80;103080;1283;64542;-82
2023/07/08 00:39:14;;;;;;;;;;;;;;;28.59;45.25;100752.16;102977;1284;61475;-81
2023/07/08 00:41:40;;;;;;;;;;;;;;;28.58;45.23;100756.38;103056;1284;61296;-81
2023/07/08 00:44:12;;;;;;;;;;;;;;;28.58;45.35;100755.13;103194;1284;61408;-81
2023/07/08 00:47:00;;;;;;;;;;;;;;;28.58;45.14;100756.73;102954;1284;63910;-81
2023/07/08 00:49:31;;;;;;;;;;;;;;;28.58;45.34;100759.45;103097;1284;65851;-81
2023/07/08 00:52:14;;;;;;;;;;;;;;;28.58;45.29;100760.59;103121;1284;62116;-81
2023/07/08 00:54:39;;;;;;;;;;;;;;;28.58;45.21;100759.63;103001;1284;62116;-81
2023/07/08 00:57:05;;;;;;;;;;;;;;;28.58;45.07;100757.85;103029;1284;61262;-81
2023/07/08 00:59:36;;;;;;;;;;;;;;;28.58;45.10;100757.50;103124;1284;61160;-81
2023/07/08 01:02:03;;;;;;;;;;;;;;;28.58;45.24;100758.23;103220;1284;61313;-81
2023/07/08 01:04:30;;;;;;;;;;;;;;;28.58;45.14;100757.36;103087;1284;61258;-81
2023/07/08 01:06:59;;;;;;;;;;;;;;;28.58;45.08;100759.36;103132;1284;63894;-81
2023/07/08 01:09:29;;;;;;;;;;;;;;;28.57;45.16;100762.10;102989;1284;66714;-81
2023/07/08 01:11:54;;;;;;;;;;;;;;;28.57;45.23;100760.30;103031;1289;59988;-81
2023/07/08 01:14:20;;;;;;;;;;;;;;;28.58;45.23;100761.67;103140;1284;61396;-81
2023/07/08 01:16:46;;;;;;;;;;;;;;;28.57;45.27;100762.89;103072;1284;61468;-81
2023/07/08 01:19:14;;;;;;;;;;;;;;;28.56;45.31;100760.38;102970;1285;61303;-81
2023/07/08 01:21:45;;;;;;;;;;;;;;;28.57;45.02;100764.31;103001;1286;62161;-81
2023/07/08 01:24:11;;;;;;;;;;;;;;;28.57;45.22;100766.67;103056;1284;61454;-81
2023/07/08 01:26:37;;;;;;;;;;;;;;;28.57;45.15;100765.97;102972;1284;61437;-81
2023/07/08 01:29:03;;;;;;;;;;;;;;;28.57;45.32;100765.59;103004;1285;61370;-81
2023/07/08 01:31:28;;;;;;;;;;;;;;;28.56;45.18;100766.52;102971;1284;62224;-81
2023/07/08 01:33:54;;;;;;;;;;;;;;;28.56;45.38;100766.54;102983;1284;62272;-81
2023/07/08 01:36:19;;;;;;;;;;;;;;;28.56;45.49;100768.35;103034;1284;61397;-81
2023/07/08 01:38:45;;;;;;;;;;;;;;;28.56;45.32;100773.06;103088;1284;61420;-81
2023/07/08 01:41:14;;;;;;;;;;;;;;;28.56;45.34;100773.98;103081;1284;61422;-81
2023/07/08 01:43:40;;;;;;;;;;;;;;;28.56;45.50;100773.60;103163;1285;61278;-81
2023/07/08 01:46:09;;;;;;;;;;;;;;;28.56;45.37;100773.29;102968;1284;61379;-81
2023/07/08 01:48:35;;;;;;;;;;;;;;;28.56;45.46;100776.34;103023;1289;64550;-81
2023/07/08 01:51:04;;;;;;;;;;;;;;;28.56;45.28;100776.71;103111;1284;66829;-81
2023/07/08 01:53:34;;;;;;;;;;;;;;;28.56;45.36;100779.98;103139;1284;61313;-81
2023/07/08 01:56:00;;;;;;;;;;;;;;;28.56;45.45;100782.86;103032;1285;61285;-81
2023/07/08 01:58:25;;;;;;;;;;;;;;;28.55;45.52;100785.62;103112;1286;61385;-81
2023/07/08 02:00:51;;;;;;;;;;;;;;;28.55;45.40;100787.11;103072;1286;61538;-81
2023/07/08 02:03:16;;;;;;;;;;;;;;;28.56;45.32;100789.42;103270;1286;61591;-81
2023/07/08 02:05:42;;;;;;;;;;;;;;;28.55;45.41;100785.82;103074;1286;61400;-81
2023/07/08 02:08:07;;;;;;;;;;;;;;;28.55;45.35;100789.08;103110;1286;60039;-81
2023/07/08 02:10:33;;;;;;;;;;;;;;;28.55;45.36;100790.02;103136;1284;62366;-81
2023/07/08 02:12:58;;;;;;;;;;;;;;;28.55;45.27;100790.57;102971;1286;61365;-81
2023/07/08 02:15:25;;;;;;;;;;;;;;;28.55;45.29;100789.70;103055;1286;62171;-81
2023/07/08 02:17:50;;;;;;;;;;;;;;;28.55;45.27;100789.66;103018;1286;61438;-81
2023/07/08 02:20:16;;;;;;;;;;;;;;;28.55;45.37;100795.27;103031;1286;61891;-81
2023/07/08 02:22:42;;;;;;;;;;;;;;;28.55;45.45;100794.00;103173;1285;63889;-81
2023/07/08 02:25:09;;;;;;;;;;;;;;;28.55;45.18;100793.15;103177;1286;61622;-81
2023/07/08 02:27:35;;;;;;;;;;;;;;;28.55;45.31;100796.58;103104;1284;61383;-81
2023/07/08 02:30:00;;;;;;;;;;;;;;;28.55;45.49;100800.38;103099;1285;60022;-81
2023/07/08 02:32:26;;;;;;;;;;;;;;;28.54;45.29;100798.65;103092;1284;62129;-81
2023/07/08 02:34:52;;;;;;;;;;;;;;;28.54;45.55;100803.15;103080;1284;61455;-81
2023/07/08 02:37:17;;;;;;;;;;;;;;;28.54;45.47;100805.13;103036;1284;61406;-81
2023/07/08 02:39:43;;;;;;;;;;;;;;;28.54;45.54;100808.05;103009;1284;61425;-81
2023/07/08 02:42:08;;;;;;;;;;;;;;;28.54;45.53;100813.47;103223;1285;62330;-81
2023/07/08 02:44:34;;;;;;;;;;;;;;;28.54;45.51;100815.30;103046;1284;61399;-81
2023/07/08 02:47:00;;;;;;;;;;;;;;;28.54;45.36;100819.52;103024;1284;62260;-81
2023/07/08 02:49:25;;;;;;;;;;;;;;;28.54;45.32;100819.86;103003;1284;61408;-81
2023/07/08 02:51:51;;;;;;;;;;;;;;;28.54;45.37;100822.20;102869;1284;61361;-81
2023/07/08 02:54:17;;;;;;;;;;;;;;;28.53;45.39;100828.23;103121;1286;61405;-81
2023/07/08 02:56:42;;;;;;;;;;;;;;;28.53;45.39;100835.98;103013;1284;62371;-81
2023/07/08 02:59:07;;;;;;;;;;;;;;;28.54;45.36;100835.60;102946;1284;61425;-81
2023/07/08 03:01:41;;;;;;;;;;;;;;;28.53;45.49;100838.90;103076;1284;60061;-81
2023/07/08 03:04:12;;;;;;;;;;;;;;;28.53;45.50;100839.84;103068;1284;61393;-81
2023/07/08 03:06:39;;;;;;;;;;;;;;;28.53;45.62;100840.73;103202;1284;63917;-81
2023/07/08 03:09:04;;;;;;;;;;;;;;;28.53;45.74;100845.10;103066;1284;65861;-81
2023/07/08 03:11:30;;;;;;;;;;;;;;;28.53;45.44;100844.77;103088;1284;61406;-81
2023/07/08 03:13:55;;;;;;;;;;;;;;;28.53;45.41;100848.02;102748;1284;62279;-82
2023/07/08 03:16:21;;;;;;;;;;;;;;;28.53;45.44;100849.63;103050;1288;61393;-82
2023/07/08 03:18:47;;;;;;;;;;;;;;;28.53;45.55;100853.77;103021;1284;60112;-82
2023/07/08 03:21:14;;;;;;;;;;;;;;;28.53;45.42;100855.94;103207;1284;65875;-82
2023/07/08 03:23:39;;;;;;;;;;;;;;;28.53;45.42;100857.60;102995;1284;62116;-82
2023/07/08 03:26:05;;;;;;;;;;;;;;;28.53;45.53;100852.89;103101;1284;61775;-82
2023/07/08 03:28:31;;;;;;;;;;;;;;;28.53;45.57;100855.02;103090;1284;60120;-82
2023/07/08 03:30:56;;;;;;;;;;;;;;;28.53;45.42;100855.25;103347;1284;62234;-82
2023/07/08 03:33:22;;;;;;;;;;;;;;;28.53;45.58;100851.08;103158;1287;61392;-82
2023/07/08 03:35:48;;;;;;;;;;;;;;;28.53;45.53;100847.26;102982;1288;61389;-82
2023/07/08 03:38:13;;;;;;;;;;;;;;;28.53;45.44;100844.02;103038;1284;62084;-82
2023/07/08 03:40:39;;;;;;;;;;;;;;;28.53;45.71;100842.21;103011;1287;60067;-82
2023/07/08 03:43:05;;;;;;;;;;;;;;;28.53;45.38;100842.59;103085;1284;61454;-82
2023/07/08 03:45:30;;;;;;;;;;;;;;;28.52;45.70;100836.66;103028;1284;60009;-82
2023/07/08 03:47:56;;;;;;;;;;;;;;;28.53;45.59;100834.82;103015;1284;62160;-82
2023/07/08 03:50:22;;;;;;;;;;;;;;;28.53;45.55;100834.79;103010;1285;61291;-82
2023/07/08 03:52:48;;;;;;;;;;;;;;;28.53;45.60;100835.36;102978;1284;61281;-82
2023/07/08 03:55:13;;;;;;;;;;;;;;;28.53;45.57;100835.54;102956;1290;60227;-82
2023/07/08 03:57:39;;;;;;;;;;;;;;;28.53;45.59;100836.20;102829;1284;61510;-82
2023/07/08 04:00:09;;;;;;;;;;;;;;;28.53;45.55;100837.85;103035;1284;61408;-82
2023/07/08 04:02:35;;;;;;;;;;;;;;;28.53;45.50;100838.74;103135;1287;65030;-82
2023/07/08 04:05:00;;;;;;;;;;;;;;;28.54;45.50;100845.05;103032;1284;61733;-82
2023/07/08 04:07:26;;;;;;;;;;;;;;;28.53;45.47;100844.71;103076;1289;60078;-82
2023/07/08 04:09:52;;;;;;;;;;;;;;;28.53;45.41;100849.56;102773;1284;61368;-82
2023/07/08 04:12:17;;;;;;;;;;;;;;;28.54;45.34;100850.27;103058;1284;61479;-82
2023/07/08 04:14:43;;;;;;;;;;;;;;;28.54;45.35;100847.92;103107;1284;61477;-81
2023/07/08 04:17:08;;;;;;;;;;;;;;;28.54;45.51;100847.73;103005;1284;65762;-81
2023/07/08 04:19:35;;;;;;;;;;;;;;;28.54;45.56;100848.98;102999;1284;61275;-81
2023/07/08 04:22:02;;;;;;;;;;;;;;;28.54;45.55;100843.95;103181;1284;60049;-81
2023/07/08 04:24:28;;;;;;;;;;;;;;;28.54;45.46;100844.13;103073;1284;62161;-81
2023/07/08 04:26:53;;;;;;;;;;;;;;;28.54;45.68;100845.73;103046;1285;61453;-81
2023/07/08 04:29:19;;;;;;;;;;;;;;;28.54;45.71;100845.05;103055;1284;60102;-81
2023/07/08 04:31:46;;;;;;;;;;;;;;;28.54;45.66;100847.77;103112;1284;61405;-81
2023/07/08 04:34:13;;;;;;;;;;;;;;;28.54;45.61;100847.93;103034;1284;61709;-81
2023/07/08 04:36:38;;;;;;;;;;;;;;;28.54;45.60;100849.91;103016;1284;61376;-81
2023/07/08 04:39:04;;;;;;;;;;;;;;;28.54;45.55;100851.35;103008;1284;61443;-81
2023/07/08 04:41:30;;;;;;;;;;;;;;;28.54;45.44;100853.34;103475;1289;61372;-81
2023/07/08 04:43:57;;;;;;;;;;;;;;;28.54;45.72;100853.63;103011;1284;61302;-81
2023/07/08 04:46:50;;;;;;;;;;;;;;;28.54;45.63;100851.86;102984;1285;63905;-81
2023/07/08 04:49:16;;;;;;;;;;;;;;;28.54;45.72;100853.66;102731;1288;66986;-81
2023/07/08 04:51:42;;;;;;;;;;;;;;;28.54;45.61;100856.38;102675;1288;61404;-82
2023/07/08 04:54:08;;;;;;;;;;;;;;;28.54;45.55;100858.52;102402;1289;62237;-82
2023/07/08 04:56:41;;;;;;;;;;;;;;;28.54;45.60;100858.75;102764;1293;61404;-82
2023/07/08 04:59:16;;;;;;;;;;;;;;;28.54;45.79;100861.61;102813;1288;66594;-82
2023/07/08 05:01:42;;;;;;;;;;;;;;;28.54;45.75;100860.89;102637;1288;62526;-82
2023/07/08 05:04:08;;;;;;;;;;;;;;;28.54;45.74;100860.39;102718;1289;61703;-82
2023/07/08 05:06:34;;;;;;;;;;;;;;;28.54;45.60;100859.69;102557;1293;61280;-82
2023/07/08 05:08:59;;;;;;;;;;;;;;;28.54;45.58;100857.13;102435;1288;61432;-82
2023/07/08 05:11:25;;;;;;;;;;;;;;;28.54;45.76;100857.98;102585;1289;61412;-82
2023/07/08 05:13:50;;;;;;;;;;;;;;;28.54;45.74;100857.63;102608;1289;62281;-82
2023/07/08 05:16:16;;;;;;;;;;;;;;;28.55;45.76;100861.02;102415;1293;62254;-82
2023/07/08 05:18:41;;;;;;;;;;;;;;;28.54;45.47;100862.89;102464;1288;61399;-82
2023/07/08 05:21:09;;;;;;;;;;;;;;;28.55;45.38;100862.46;102840;1288;61345;-81
2023/07/08 05:23:34;;;;;;;;;;;;;;;28.55;45.55;100861.21;102529;1289;62312;-81
2023/07/08 05:26:00;;;;;;;;;;;;;;;28.55;45.45;100862.98;102722;1284;61378;-81
2023/07/08 05:28:26;;;;;;;;;;;;;;;28.55;45.42;100864.06;103103;1284;61256;-81
2023/07/08 05:30:57;;;;;;;;;;;;;;;28.56;45.42;100865.45;103087;1289;61458;-81
2023/07/08 05:33:23;;;;;;;;;;;;;;;28.56;45.48;100863.05;103042;1284;66779;-82
2023/07/08 05:35:49;;;;;;;;;;;;;;;28.56;45.61;100862.54;103081;1284;62071;-82
2023/07/08 05:38:14;;;;;;;;;;;;;;;28.56;45.58;100867.02;103016;1284;62272;-82
2023/07/08 05:40:40;;;;;;;;;;;;;;;28.57;45.56;100867.87;102939;1284;61372;-82
2023/07/08 05:43:06;;;;;;;;;;;;;;;28.57;45.49;100865.65;103022;1285;61228;-82
2023/07/08 05:45:31;;;;;;;;;;;;;;;28.57;45.40;100868.26;102940;1289;62329;-82
2023/07/08 05:47:57;;;;;;;;;;;;;;;28.57;45.64;100869.81;103097;1284;62299;-82
2023/07/08 05:50:22;;;;;;;;;;;;;;;28.57;45.53;100871.83;103050;1284;61260;-82
2023/07/08 05:52:48;;;;;;;;;;;;;;;28.57;45.58;100874.19;103075;1284;60076;-82
2023/07/08 05:55:13;;;;;;;;;;;;;;;28.57;45.57;100874.91;103006;1284;61436;-82
2023/07/08 05:57:39;;;;;;;;;;;;;;;28.58;45.45;100874.34;103157;1284;60017;-82
2023/07/08 06:00:04;;;;;;;;;;;;;;;28.57;45.56;100874.02;103036;1284;62292;-82
2023/07/08 06:02:30;;;;;;;;;;;;;;;28.57;45.59;100875.42;102885;1286;62369;-82
2023/07/08 06:04:56;;;;;;;;;;;;;;;28.57;45.63;100873.83;103088;1284;60032;-82
2023/07/08 06:07:22;;;;;;;;;;;;;;;28.57;45.65;100874.53;103039;1284;61373;-82
2023/07/08 06:09:47;;;;;;;;;;;;;;;28.57;45.53;100875.27;102996;1284;61266;-82
2023/07/08 06:12:13;;;;;;;;;;;;;;;28.56;45.54;100875.89;103146;1285;60912;-82
2023/07/08 06:14:39;;;;;;;;;;;;;;;28.56;45.63;100881.38;102925;1289;60771;-81
2023/07/08 06:17:04;;;;;;;;;;;;;;;28.55;45.72;100882.31;103075;1284;63115;-81
2023/07/08 06:19:30;;;;;;;;;;;;;;;28.56;45.68;100886.80;103112;1284;60922;-81
2023/07/08 06:21:55;;;;;;;;;;;;;;;28.55;45.65;100885.41;103050;1289;62222;-81
2023/07/08 06:24:20;;;;;;;;;;;;;;;28.55;45.80;100882.70;103087;1284;62167;-81
2023/07/08 06:26:46;;;;;;;;;;;;;;;28.55;45.71;100883.61;102985;1284;60751;-81
2023/07/08 06:29:11;;;;;;;;;;;;;;;28.55;45.60;100881.10;103034;1290;63075;-81
2023/07/08 06:31:37;;;;;;;;;;;;;;;28.55;45.50;100882.52;103060;1284;62189;-81
2023/07/08 06:34:03;;;;;;;;;;;;;;;28.55;45.74;100872.08;103028;1289;63015;-81
2023/07/08 06:36:30;;;;;;;;;;;;;;;28.55;45.61;100867.73;103087;1285;62102;-81
2023/07/08 06:38:56;;;;;;;;;;;;;;;28.55;45.76;100867.93;103149;1284;62136;-81
2023/07/08 06:41:21;;;;;;;;;;;;;;;28.54;45.74;100867.92;103014;1289;62268;-81
2023/07/08 06:43:46;;;;;;;;;;;;;;;28.54;45.51;100864.88;102967;1284;62319;-81
2023/07/08 06:46:12;;;;;;;;;;;;;;;28.55;45.58;100870.10;103000;1285;61020;-81
2023/07/08 06:48:38;;;;;;;;;;;;;;;28.55;45.61;100868.10;103022;1284;62200;-81
2023/07/08 06:51:03;;;;;;;;;;;;;;;28.54;45.57;100868.47;103078;1284;60944;-81
2023/07/08 06:53:28;;;;;;;;;;;;;;;28.55;45.56;100862.06;103105;1284;62222;-81
2023/07/08 06:55:54;;;;;;;;;;;;;;;28.55;45.79;100858.97;102972;1289;66521;-82
2023/07/08 06:58:19;;;;;;;;;;;;;;;28.56;45.75;100860.20;102948;1284;62200;-82
2023/07/08 07:00:45;;;;;;;;;;;;;;;28.56;45.52;100862.70;103084;1284;63025;-82
2023/07/08 07:03:11;;;;;;;;;;;;;;;28.56;45.45;100863.02;103048;1285;62067;-82
2023/07/08 07:05:37;;;;;;;;;;;;;;;28.56;45.57;100864.83;103096;1284;61946;-82
2023/07/08 07:08:02;;;;;;;;;;;;;;;28.57;45.50;100864.24;102541;1285;783970;-82
2023/07/08 07:10:28;;;;;;;;;;;;;;;28.57;45.44;100860.97;102999;1284;62955;-82
2023/07/08 07:12:54;;;;;;;;;;;;;;;28.57;45.41;100861.67;102993;1284;60861;-82
2023/07/08 07:15:19;;;;;;;;;;;;;;;28.58;45.54;100862.52;103008;1284;62153;-82
2023/07/08 07:17:46;;;;;;;;;;;;;;;28.58;45.55;100864.82;102975;1284;62062;-82
2023/07/08 07:20:12;;;;;;;;;;;;;;;28.58;45.52;100865.92;103427;1289;63000;-82
2023/07/08 07:22:37;;;;;;;;;;;;;;;28.58;45.74;100873.55;103095;1285;62190;-81
2023/07/08 07:25:03;;;;;;;;;;;;;;;28.58;45.70;100872.65;102868;1285;62358;-81
2023/07/08 07:27:29;;;;;;;;;;;;;;;28.58;45.62;100869.75;103068;1290;63855;-81
2023/07/08 07:29:54;;;;;;;;;;;;;;;28.58;45.69;100868.27;103019;1284;62277;-81
2023/07/08 07:32:22;;;;;;;;;;;;;;;28.58;45.73;100868.42;103144;1287;62196;-81
2023/07/08 07:34:47;;;;;;;;;;;;;;;28.59;45.58;100867.66;103146;1289;60718;-81
2023/07/08 07:37:13;;;;;;;;;;;;;;;28.60;45.65;100867.53;103106;1284;62210;-81
2023/07/08 07:39:39;;;;;;;;;;;;;;;28.60;45.46;100872.93;102990;1284;62272;-81
2023/07/08 07:42:05;;;;;;;;;;;;;;;28.61;45.55;100871.61;103109;1284;62124;-81
2023/07/08 07:44:30;;;;;;;;;;;;;;;28.61;45.76;100875.21;102861;1289;62203;-81
2023/07/08 07:46:55;;;;;;;;;;;;;;;28.62;45.61;100873.92;103033;1284;63101;-81
2023/07/08 07:49:21;;;;;;;;;;;;;;;28.62;45.66;100877.11;103006;1288;62199;-81
2023/07/08 07:51:46;;;;;;;;;;;;;;;28.63;45.73;100871.11;103004;1285;63047;-81
2023/07/08 07:54:12;;;;;;;;;;;;;;;28.63;45.67;100869.79;102894;1284;60928;-81
2023/07/08 07:56:37;;;;;;;;;;;;;;;28.63;45.50;100868.91;103169;1284;63009;-81
2023/07/08 07:59:03;;;;;;;;;;;;;;;28.63;45.59;100876.27;103094;1284;60932;-81
2023/07/08 08:01:28;;;;;;;;;;;;;;;28.64;45.59;100876.23;103018;1285;62185;-81
2023/07/08 08:03:55;;;;;;;;;;;;;;;28.65;45.66;100877.81;103172;1288;60857;-82
2023/07/08 08:06:20;;;;;;;;;;;;;;;28.65;45.50;100877.95;103003;1284;63112;-82
2023/07/08 08:08:46;;;;;;;;;;;;;;;28.65;45.62;100878.29;103080;1289;62228;-82
2023/07/08 08:11:12;;;;;;;;;;;;;;;28.66;45.67;100875.34;102661;1284;62186;-81
2023/07/08 08:13:37;;;;;;;;;;;;;;;28.66;45.54;100875.92;103147;1285;63203;-81
2023/07/08 08:16:04;;;;;;;;;;;;;;;28.65;45.62;100874.31;102971;1284;62157;-81
2023/07/08 08:18:30;;;;;;;;;;;;;;;28.65;45.51;100871.05;103005;1284;62200;-81
2023/07/08 08:20:55;;;;;;;;;;;;;;;28.65;45.31;100871.40;103044;1284;63073;-81
2023/07/08 08:23:20;;;;;;;;;;;;;;;28.65;45.38;100876.83;103109;1286;60967;-81
2023/07/08 08:25:46;;;;;;;;;;;;;;;28.66;45.73;100880.02;103312;1284;64698;-81
2023/07/08 08:28:11;;;;;;;;;;;;;;;28.66;45.76;100878.60;102988;1289;62273;-81
2023/07/08 08:30:38;;;;;;;;;;;;;;;28.66;45.56;100884.72;103133;1284;62188;-81
2023/07/08 08:33:05;;;;;;;;;;;;;;;28.66;45.70;100888.15;103667;1285;62154;-81
2023/07/08 08:35:30;;;;;;;;;;;;;;;28.67;45.56;100891.89;103040;1284;62822;-81
2023/07/08 08:37:56;;;;;;;;;;;;;;;28.67;45.51;100891.73;102991;1284;62269;-81
2023/07/08 08:40:21;;;;;;;;;;;;;;;28.67;45.53;100893.51;103682;1285;62197;-81
2023/07/08 08:42:53;;;;;;;;;;;;;;;28.67;45.55;100896.71;103415;1285;60826;-81
2023/07/08 08:45:20;;;;;;;;;;;;;;;28.68;45.63;100895.76;103219;1285;62173;-81
2023/07/08 08:47:49;;;;;;;;;;;;;;;28.68;45.62;100893.56;103082;1287;64114;-81
2023/07/08 08:50:18;;;;;;;;;;;;;;;28.69;45.54;100899.13;103083;1286;67594;-81
2023/07/08 08:52:43;;;;;;;;;;;;;;;28.69;45.54;100900.86;103257;1288;63095;-81
2023/07/08 08:55:13;;;;;;;;;;;;;;;28.70;45.55;100898.46;102973;1285;62144;-81
2023/07/08 08:57:57;;;;;;;;;;;;;;;28.70;45.51;100902.80;102965;1285;63944;-81
2023/07/08 09:00:37;;;;;;;;;;;;;;;28.71;45.44;100907.06;103112;1284;66626;-81
2023/07/08 09:03:04;;;;;;;;;;;;;;;28.71;45.44;100912.63;103101;1285;62072;-81
2023/07/08 09:05:30;;;;;;;;;;;;;;;28.71;45.41;100906.65;103058;1284;62092;-81
2023/07/08 09:08:00;;;;;;;;;;;;;;;28.71;45.44;100911.51;103022;1289;62259;-81
2023/07/08 09:10:32;;;;;;;;;;;;;;;28.71;45.42;100916.22;103247;1284;67362;-81
2023/07/08 09:12:57;;;;;;;;;;;;;;;28.72;45.28;100917.23;103114;1284;62922;-81
2023/07/08 09:15:23;;;;;;;;;;;;;;;28.73;45.31;100917.36;103045;1289;60811;-81
2023/07/08 09:17:49;;;;;;;;;;;;;;;28.73;45.24;100918.25;102970;1285;63091;-81
2023/07/08 09:20:31;;;;;;;;;;;;;;;28.73;45.32;100920.95;103029;1284;61018;-81
2023/07/08 09:23:18;;;;;;;;;;;;;;;28.74;45.37;100919.75;103058;1285;63101;-81
2023/07/08 09:25:54;;;;;;;;;;;;;;;28.74;45.35;100920.80;103107;1284;62067;-81
2023/07/08 09:28:19;;;;;;;;;;;;;;;28.75;45.28;100915.35;103014;1284;64129;-81
2023/07/08 09:30:46;;;;;;;;;;;;;;;28.74;45.40;100911.54;102864;1291;62257;-81
2023/07/08 09:33:12;;;;;;;;;;;;;;;28.74;45.38;100920.06;103019;1284;63122;-81
2023/07/08 09:35:39;;;;;;;;;;;;;;;28.75;45.28;100923.84;102965;1285;63069;-81
2023/07/08 09:38:08;;;;;;;;;;;;;;;28.75;45.11;100926.48;103053;1285;62151;-81
2023/07/08 09:40:33;;;;;;;;;;;;;;;28.76;45.17;100926.41;102816;1284;66647;-81
2023/07/08 09:43:16;;;;;;;;;;;;;;;28.76;45.36;100928.42;103100;1284;60916;-82
2023/07/08 09:45:45;;;;;;;;;;;;;;;28.76;45.17;100926.59;103034;1288;61181;-81
2023/07/08 09:48:15;;;;;;;;;;;;;;;28.76;45.23;100924.61;103133;1284;64900;-81
2023/07/08 09:50:42;;;;;;;;;;;;;;;28.76;45.10;100924.25;103067;1289;67634;-81
2023/07/08 09:53:11;;;;;;;;;;;;;;;28.76;45.38;100927.49;102784;1286;62063;-81
2023/07/08 09:55:36;;;;;;;;;;;;;;;28.76;45.17;100930.08;103045;1284;62982;-81
2023/07/08 09:58:02;;;;;;;;;;;;;;;28.75;45.10;100929.40;102980;1290;62224;-81
2023/07/08 10:00:28;;;;;;;;;;;;;;;28.75;45.19;100931.02;103109;1288;62140;-81
2023/07/08 10:02:54;;;;;;;;;;;;;;;28.75;45.16;100932.11;103008;1290;62222;-81
2023/07/08 10:05:36;;;;;;;;;;;;;;;28.74;44.97;100928.44;103040;1284;62209;-81
2023/07/08 10:08:03;;;;;;;;;;;;;;;28.74;45.14;100928.79;102664;1287;62772;-81
2023/07/08 10:10:35;;;;;;;;;;;;;;;28.74;45.18;100936.42;103049;1288;60895;-81
2023/07/08 10:13:16;;;;;;;;;;;;;;;28.74;45.30;100937.89;102994;1286;63090;-81
2023/07/08 10:15:42;;;;;;;;;;;;;;;28.74;44.87;100936.48;103162;1286;62147;-81
2023/07/08 10:18:14;;;;;;;;;;;;;;;28.73;44.97;100937.96;102966;1284;63026;-81
2023/07/08 10:20:43;;;;;;;;;;;;;;;28.73;45.11;100941.42;103021;1284;67575;-81
2023/07/08 10:23:13;;;;;;;;;;;;;;;28.73;45.06;100940.52;102979;1288;60764;-81
2023/07/08 10:25:48;;;;;;;;;;;;;;;28.72;44.95;100941.30;103114;1283;62034;-81
2023/07/08 10:28:46;;;;;;;;;;;;;;;28.72;45.09;100941.48;102999;1289;63837;-81
2023/07/08 10:31:15;;;;;;;;;;;;;;;28.72;45.09;100938.61;102682;1288;67531;-81
2023/07/08 10:33:45;;;;;;;;;;;;;;;28.71;44.98;100935.75;102688;1289;62214;-81
2023/07/08 10:36:11;;;;;;;;;;;;;;;28.71;44.93;100932.86;102623;1293;63158;-81
2023/07/08 10:38:55;;;;;;;;;;;;;;;28.71;44.90;100929.47;102925;1292;62079;-81
2023/07/08 10:41:39;;;;;;;;;;;;;;;28.71;44.93;100924.92;102832;1289;66643;-81
2023/07/08 10:44:06;;;;;;;;;;;;;;;28.72;44.84;100921.08;102837;1291;62974;-81
2023/07/08 10:46:34;;;;;;;;;;;;;;;28.71;44.96;100918.02;102917;1292;62415;-81
2023/07/08 10:49:04;;;;;;;;;;;;;;;28.71;45.01;100922.41;102737;1289;64886;-81
2023/07/08 10:51:36;;;;;;;;;;;;;;;28.71;44.93;100916.73;102786;1292;67566;-81
2023/07/08 10:54:16;;;;;;;;;;;;;;;28.72;45.01;100912.02;102671;1292;62219;-81
2023/07/08 10:56:53;;;;;;;;;;;;;;;28.72;44.99;100909.84;102727;1294;62085;-81
2023/07/08 10:59:20;;;;;;;;;;;;;;;28.72;44.93;100908.18;102699;1291;63676;-81
2023/07/08 11:01:46;;;;;;;;;;;;;;;28.72;44.94;100905.42;103211;1289;67021;-81
2023/07/08 11:04:33;;;;;;;;;;;;;;;28.73;44.61;100901.23;103217;1289;61084;-81
2023/07/08 11:07:09;;;;;;;;;;;;;;;28.73;44.76;100897.58;102969;1286;60909;-81
2023/07/08 11:09:43;;;;;;;;;;;;;;;28.73;44.72;100899.73;103152;1286;64830;-81
2023/07/08 11:12:15;;;;;;;;;;;;;;;28.73;44.70;100893.91;102993;1289;67945;-81
2023/07/08 11:14:42;;;;;;;;;;;;;;;28.73;44.74;100897.71;103215;1287;60810;-81
2023/07/08 11:17:18;;;;;;;;;;;;;;;28.74;44.56;100897.89;102980;1285;62044;-81
2023/07/08 11:19:49;;;;;;;;;;;;;;;28.73;44.69;100900.27;103073;1286;65271;-81
2023/07/08 11:22:15;;;;;;;;;;;;;;;28.74;44.84;100896.25;103375;1289;67561;-81
2023/07/08 11:24:47;;;;;;;;;;;;;;;28.74;44.55;100900.95;103123;1286;62200;-81
2023/07/08 11:27:41;;;;;;;;;;;;;;;28.74;44.52;100904.20;103079;1287;60832;-82
2023/07/08 11:30:17;;;;;;;;;;;;;;;28.74;44.59;100894.92;103194;1289;64677;-82
2023/07/08 11:32:44;;;;;;;;;;;;;;;28.75;44.66;100903.93;103155;1284;68760;-81
2023/07/08 11:35:16;;;;;;;;;;;;;;;28.74;44.72;100901.79;103228;1285;62979;-81
2023/07/08 11:37:41;;;;;;;;;;;;;;;28.74;44.48;100897.99;103037;1286;62242;-81
2023/07/08 11:40:08;;;;;;;;;;;;;;;28.74;44.56;100906.13;103062;1285;63013;-81
2023/07/08 11:42:42;;;;;;;;;;;;;;;28.74;44.39;100902.50;103163;1286;62136;-81
2023/07/08 11:45:28;;;;;;;;;;;;;;;28.74;44.38;100898.52;103079;1286;62014;-81
2023/07/08 11:47:54;;;;;;;;;;;;;;;28.74;44.42;100899.23;103065;1286;62078;-81
2023/07/08 11:50:21;;;;;;;;;;;;;;;28.74;44.39;100900.70;103179;1286;63056;-81
2023/07/08 11:52:51;;;;;;;;;;;;;;;28.74;44.34;100897.48;103093;1286;62200;-81
2023/07/08 11:55:21;;;;;;;;;;;;;;;28.74;44.39;100899.98;103055;1289;62180;-81
2023/07/08 11:57:46;;;;;;;;;;;;;;;28.74;44.45;100901.82;103114;1284;63069;-81
2023/07/08 12:00:19;;;;;;;;;;;;;;;28.74;44.37;100899.27;103003;1288;60926;-81
2023/07/08 12:02:49;;;;;;;;;;;;;;;28.75;44.56;100909.88;102977;1287;66403;-81
2023/07/08 12:05:14;;;;;;;;;;;;;;;28.74;44.39;100905.93;103021;1286;63117;-81
2023/07/08 12:07:47;;;;;;;;;;;;;;;28.75;44.39;100902.45;103234;1286;62199;-81
2023/07/08 12:10:16;;;;;;;;;;;;;;;28.75;44.37;100901.48;103129;1285;64643;-81
2023/07/08 12:12:43;;;;;;;;;;;;;;;28.75;44.36;100901.32;103135;1284;66721;-81
2023/07/08 12:15:12;;;;;;;;;;;;;;;28.76;44.50;100902.71;103062;1285;62189;-81
2023/07/08 12:17:38;;;;;;;;;;;;;;;28.77;44.34;100893.93;103147;1288;62007;-81
2023/07/08 12:20:04;;;;;;;;;;;;;;;28.76;44.36;100892.52;102837;1284;62203;-81
2023/07/08 12:22:29;;;;;;;;;;;;;;;28.77;44.12;100894.61;102975;1288;63081;-81
2023/07/08 12:24:55;;;;;;;;;;;;;;;28.79;44.23;100899.94;102977;1289;62634;-81
2023/07/08 12:27:21;;;;;;;;;;;;;;;28.79;44.30;100895.19;103027;1286;63174;-81